TimeCDT,TemperatureF,Dew PointF,Humidity,Sea Level PressureIn,VisibilityMPH,Wind Direction,Wind SpeedMPH,Gust SpeedMPH,PrecipitationIn,Events,Conditions,WindDirDegrees,DateUTC
12:53 AM,79.0,75.0,88,29.81,7.0,SE,12.7,-,N/A,,Overcast,140,2013-05-22 05:53:00
1:53 AM,79.0,75.0,88,29.80,7.0,SSE,10.4,-,N/A,,Overcast,150,2013-05-22 06:53:00
2:17 AM,78.8,75.2,89,29.80,7.0,SSE,8.1,-,N/A,,Overcast,150,2013-05-22 07:17:00
2:40 AM,80.6,75.2,84,29.81,7.0,Calm,Calm,-,N/A,,Overcast,0,2013-05-22 07:40:00
2:53 AM,79.0,75.0,88,29.82,7.0,North,4.6,-,N/A,,Overcast,350,2013-05-22 07:53:00
3:47 AM,78.8,75.2,89,29.81,7.0,SE,8.1,-,N/A,,Overcast,140,2013-05-22 08:47:00
3:53 AM,80.1,75.0,85,29.81,7.0,SSE,9.2,-,N/A,,Overcast,150,2013-05-22 08:53:00
5:35 AM,80.6,75.2,84,29.82,7.0,SSE,6.9,-,N/A,,Overcast,150,2013-05-22 10:35:00
5:53 AM,80.1,75.0,85,29.83,7.0,SSE,5.8,-,N/A,,Overcast,160,2013-05-22 10:53:00
6:06 AM,80.6,75.2,84,29.82,7.0,SSE,6.9,-,N/A,,Overcast,160,2013-05-22 11:06:00
6:14 AM,80.6,75.2,84,29.82,7.0,SSE,8.1,-,N/A,,Overcast,150,2013-05-22 11:14:00
6:53 AM,79.0,75.0,88,29.83,5.0,South,6.9,-,N/A,,Overcast,170,2013-05-22 11:53:00
7:45 AM,80.6,75.2,84,29.85,6.0,SSE,5.8,-,N/A,,Overcast,160,2013-05-22 12:45:00
7:53 AM,80.1,75.0,85,29.86,6.0,SSE,8.1,-,N/A,,Haze,160,2013-05-22 12:53:00
8:35 AM,80.6,75.2,84,29.87,6.0,SSE,5.8,-,N/A,,Haze,150,2013-05-22 13:35:00
8:53 AM,82.0,75.9,82,29.87,6.0,SSE,6.9,-,N/A,,Haze,150,2013-05-22 13:53:00
9:53 AM,82.9,73.9,74,29.88,7.0,South,9.2,-,N/A,,Overcast,170,2013-05-22 14:53:00
10:53 AM,84.9,73.9,69,29.89,7.0,South,10.4,-,N/A,,Mostly Cloudy,170,2013-05-22 15:53:00
11:53 AM,84.9,73.9,69,29.90,8.0,South,12.7,-,N/A,,Partly Cloudy,170,2013-05-22 16:53:00
12:53 PM,87.1,73.9,65,29.90,8.0,South,9.2,-,N/A,,Clear,170,2013-05-22 17:53:00
1:53 PM,87.1,73.0,63,29.88,8.0,SSE,11.5,-,N/A,,Clear,160,2013-05-22 18:53:00
2:53 PM,86.0,73.9,67,29.86,8.0,South,9.2,-,N/A,,Clear,190,2013-05-22 19:53:00
3:53 PM,86.0,73.9,67,29.85,9.0,South,11.5,-,N/A,,Clear,180,2013-05-22 20:53:00
4:53 PM,86.0,73.9,67,29.84,10.0,South,10.4,-,N/A,,Scattered Clouds,170,2013-05-22 21:53:00
5:03 PM,86.0,73.4,66,29.84,10.0,SSE,10.4,-,N/A,,Mostly Cloudy,160,2013-05-22 22:03:00
5:11 PM,84.2,73.4,70,29.84,10.0,SSE,11.5,-,N/A,,Scattered Clouds,160,2013-05-22 22:11:00
5:46 PM,84.2,73.4,70,29.84,10.0,South,11.5,-,N/A,,Mostly Cloudy,170,2013-05-22 22:46:00
5:53 PM,84.0,73.9,72,29.83,10.0,South,12.7,-,N/A,,Mostly Cloudy,170,2013-05-22 22:53:00
6:06 PM,84.2,73.4,70,29.84,9.0,South,9.2,-,N/A,,Scattered Clouds,170,2013-05-22 23:06:00
6:53 PM,82.9,73.0,72,29.83,10.0,South,10.4,-,N/A,,Clear,170,2013-05-22 23:53:00
7:53 PM,82.9,73.0,72,29.84,10.0,SSE,10.4,-,N/A,,Clear,160,2013-05-23 00:53:00
8:53 PM,81.0,73.9,79,29.86,10.0,SE,11.5,-,N/A,,Partly Cloudy,140,2013-05-23 01:53:00
9:53 PM,80.1,73.9,81,29.89,10.0,SE,8.1,-,N/A,,Clear,130,2013-05-23 02:53:00
10:53 PM,80.1,73.9,81,29.90,10.0,SE,9.2,-,N/A,,Clear,130,2013-05-23 03:53:00
11:51 PM,80.6,73.4,79,29.91,10.0,ESE,8.1,-,N/A,,Mostly Cloudy,120,2013-05-23 04:51:00
11:53 PM,80.1,73.9,81,29.91,10.0,ESE,9.2,-,N/A,,Mostly Cloudy,120,2013-05-23 04:53:00